sensor_id;sensor_type;location;lat;lon;timestamp;P1;durP1;ratioP1;P2;durP2;ratioP2
62880;SDS011;48969;49.934;8.596;2023-03-02T00:00:35;6.80;;;2.35;;
62880;SDS011;48969;49.934;8.596;2023-03-02T00:03:00;9.38;;;3.05;;
62880;SDS011;48969;49.934;8.596;2023-03-02T00:05:26;3.67;;;3.15;;
62880;SDS011;48969;49.934;8.596;2023-03-02T00:07:52;2.75;;;2.40;;
62880;SDS011;48969;49.934;8.596;2023-03-02T00:10:18;5.63;;;3.13;;
62880;SDS011;48969;49.934;8.596;2023-03-02T00:12:43;3.05;;;2.42;;
62880;SDS011;48969;49.934;8.596;2023-03-02T00:15:09;4.32;;;3.47;;
62880;SDS011;48969;49.934;8.596;2023-03-02T00:17:34;1.25;;;1.00;;
62880;SDS011;48969;49.934;8.596;2023-03-02T00:20:01;5.30;;;2.57;;
62880;SDS011;48969;49.934;8.596;2023-03-02T00:24:58;2.83;;;2.22;;
62880;SDS011;48969;49.934;8.596;2023-03-02T00:27:24;2.46;;;1.90;;
62880;SDS011;48969;49.934;8.596;2023-03-02T00:29:51;1.40;;;0.85;;
62880;SDS011;48969;49.934;8.596;2023-03-02T00:32:17;2.83;;;2.58;;
62880;SDS011;48969;49.934;8.596;2023-03-02T00:34:45;8.80;;;4.87;;
62880;SDS011;48969;49.934;8.596;2023-03-02T00:37:10;2.63;;;2.43;;
62880;SDS011;48969;49.934;8.596;2023-03-02T00:39:35;5.56;;;4.02;;
62880;SDS011;48969;49.934;8.596;2023-03-02T00:42:00;4.70;;;2.43;;
62880;SDS011;48969;49.934;8.596;2023-03-02T00:44:26;7.48;;;3.64;;
62880;SDS011;48969;49.934;8.596;2023-03-02T00:46:51;6.50;;;3.36;;
62880;SDS011;48969;49.934;8.596;2023-03-02T00:49:16;2.33;;;2.22;;
62880;SDS011;48969;49.934;8.596;2023-03-02T00:51:41;7.62;;;4.26;;
62880;SDS011;48969;49.934;8.596;2023-03-02T00:54:06;10.98;;;3.25;;
62880;SDS011;48969;49.934;8.596;2023-03-02T00:56:31;8.60;;;3.60;;
62880;SDS011;48969;49.934;8.596;2023-03-02T00:58:57;6.15;;;4.45;;
62880;SDS011;48969;49.934;8.596;2023-03-02T01:01:22;2.06;;;1.92;;
62880;SDS011;48969;49.934;8.596;2023-03-02T01:03:47;3.26;;;2.94;;
62880;SDS011;48969;49.934;8.596;2023-03-02T01:06:16;0.76;;;0.76;;
62880;SDS011;48969;49.934;8.596;2023-03-02T01:08:41;5.80;;;2.00;;
62880;SDS011;48969;49.934;8.596;2023-03-02T01:11:17;11.40;;;3.05;;
62880;SDS011;48969;49.934;8.596;2023-03-02T01:13:43;7.73;;;2.47;;
62880;SDS011;48969;49.934;8.596;2023-03-02T01:16:08;3.83;;;1.25;;
62880;SDS011;48969;49.934;8.596;2023-03-02T01:18:34;1.33;;;1.23;;
62880;SDS011;48969;49.934;8.596;2023-03-02T01:21:03;1.13;;;1.00;;
62880;SDS011;48969;49.934;8.596;2023-03-02T01:23:29;2.25;;;1.65;;
62880;SDS011;48969;49.934;8.596;2023-03-02T01:25:54;2.63;;;1.38;;
62880;SDS011;48969;49.934;8.596;2023-03-02T01:28:19;5.77;;;2.10;;
62880;SDS011;48969;49.934;8.596;2023-03-02T01:30:45;2.10;;;2.00;;
62880;SDS011;48969;49.934;8.596;2023-03-02T01:33:11;2.40;;;1.67;;
62880;SDS011;48969;49.934;8.596;2023-03-02T01:35:36;3.10;;;1.58;;
62880;SDS011;48969;49.934;8.596;2023-03-02T01:38:01;2.50;;;2.30;;
62880;SDS011;48969;49.934;8.596;2023-03-02T01:40:26;5.08;;;2.50;;
62880;SDS011;48969;49.934;8.596;2023-03-02T01:42:54;6.23;;;5.53;;
62880;SDS011;48969;49.934;8.596;2023-03-02T01:48:04;4.00;;;2.97;;
62880;SDS011;48969;49.934;8.596;2023-03-02T01:50:29;2.63;;;2.43;;
62880;SDS011;48969;49.934;8.596;2023-03-02T01:52:55;5.43;;;3.07;;
62880;SDS011;48969;49.934;8.596;2023-03-02T01:55:21;5.50;;;3.00;;
62880;SDS011;48969;49.934;8.596;2023-03-02T01:57:48;1.73;;;1.63;;
62880;SDS011;48969;49.934;8.596;2023-03-02T02:00:15;2.57;;;1.83;;
62880;SDS011;48969;49.934;8.596;2023-03-02T02:02:43;4.37;;;3.97;;
62880;SDS011;48969;49.934;8.596;2023-03-02T02:05:08;5.80;;;3.03;;
62880;SDS011;48969;49.934;8.596;2023-03-02T02:07:35;5.77;;;2.60;;
62880;SDS011;48969;49.934;8.596;2023-03-02T02:10:00;12.13;;;5.63;;
62880;SDS011;48969;49.934;8.596;2023-03-02T02:12:26;14.33;;;5.33;;
62880;SDS011;48969;49.934;8.596;2023-03-02T02:14:51;1.86;;;1.72;;
62880;SDS011;48969;49.934;8.596;2023-03-02T02:17:17;11.87;;;4.17;;
62880;SDS011;48969;49.934;8.596;2023-03-02T02:22:13;3.37;;;3.07;;
62880;SDS011;48969;49.934;8.596;2023-03-02T02:24:41;1.03;;;1.03;;
62880;SDS011;48969;49.934;8.596;2023-03-02T02:27:08;3.20;;;2.97;;
62880;SDS011;48969;49.934;8.596;2023-03-02T02:29:34;1.80;;;1.70;;
62880;SDS011;48969;49.934;8.596;2023-03-02T02:32:09;4.57;;;3.87;;
62880;SDS011;48969;49.934;8.596;2023-03-02T02:34:40;1.70;;;1.53;;
62880;SDS011;48969;49.934;8.596;2023-03-02T02:37:14;1.17;;;1.17;;
62880;SDS011;48969;49.934;8.596;2023-03-02T02:39:42;3.33;;;2.43;;
62880;SDS011;48969;49.934;8.596;2023-03-02T02:42:12;7.43;;;4.00;;
62880;SDS011;48969;49.934;8.596;2023-03-02T02:44:39;2.17;;;1.37;;
62880;SDS011;48969;49.934;8.596;2023-03-02T02:47:08;5.83;;;3.10;;
62880;SDS011;48969;49.934;8.596;2023-03-02T02:49:38;8.43;;;4.83;;
62880;SDS011;48969;49.934;8.596;2023-03-02T02:52:04;1.33;;;1.23;;
62880;SDS011;48969;49.934;8.596;2023-03-02T02:54:30;3.60;;;2.07;;
62880;SDS011;48969;49.934;8.596;2023-03-02T02:56:56;2.67;;;2.43;;
62880;SDS011;48969;49.934;8.596;2023-03-02T02:59:30;1.07;;;1.07;;
62880;SDS011;48969;49.934;8.596;2023-03-02T03:01:56;1.60;;;1.50;;
62880;SDS011;48969;49.934;8.596;2023-03-02T03:04:23;5.63;;;5.17;;
62880;SDS011;48969;49.934;8.596;2023-03-02T03:06:50;2.10;;;2.00;;
62880;SDS011;48969;49.934;8.596;2023-03-02T03:09:16;3.10;;;2.47;;
62880;SDS011;48969;49.934;8.596;2023-03-02T03:11:42;4.87;;;4.30;;
62880;SDS011;48969;49.934;8.596;2023-03-02T03:14:09;2.40;;;2.20;;
62880;SDS011;48969;49.934;8.596;2023-03-02T03:16:35;9.10;;;4.07;;
62880;SDS011;48969;49.934;8.596;2023-03-02T03:19:11;4.53;;;3.33;;
62880;SDS011;48969;49.934;8.596;2023-03-02T03:21:37;7.30;;;2.40;;
62880;SDS011;48969;49.934;8.596;2023-03-02T03:24:02;3.63;;;3.03;;
62880;SDS011;48969;49.934;8.596;2023-03-02T03:26:27;3.73;;;2.27;;
62880;SDS011;48969;49.934;8.596;2023-03-02T03:28:53;4.80;;;2.57;;
62880;SDS011;48969;49.934;8.596;2023-03-02T03:31:21;0.77;;;0.77;;
62880;SDS011;48969;49.934;8.596;2023-03-02T03:33:46;4.40;;;4.10;;
62880;SDS011;48969;49.934;8.596;2023-03-02T03:36:13;2.57;;;2.37;;
62880;SDS011;48969;49.934;8.596;2023-03-02T03:38:38;1.02;;;1.02;;
62880;SDS011;48969;49.934;8.596;2023-03-02T03:41:03;0.60;;;0.60;;
62880;SDS011;48969;49.934;8.596;2023-03-02T03:43:28;1.90;;;1.70;;
62880;SDS011;48969;49.934;8.596;2023-03-02T03:45:54;2.33;;;2.07;;
62880;SDS011;48969;49.934;8.596;2023-03-02T03:48:19;1.90;;;0.93;;
62880;SDS011;48969;49.934;8.596;2023-03-02T03:50:44;0.92;;;0.90;;
62880;SDS011;48969;49.934;8.596;2023-03-02T03:53:09;6.16;;;3.46;;
62880;SDS011;48969;49.934;8.596;2023-03-02T03:55:34;3.56;;;3.32;;
62880;SDS011;48969;49.934;8.596;2023-03-02T03:57:59;1.60;;;1.50;;
62880;SDS011;48969;49.934;8.596;2023-03-02T04:00:25;3.80;;;2.57;;
62880;SDS011;48969;49.934;8.596;2023-03-02T04:02:50;2.90;;;2.23;;
62880;SDS011;48969;49.934;8.596;2023-03-02T04:05:15;7.00;;;6.07;;
62880;SDS011;48969;49.934;8.596;2023-03-02T04:07:41;2.73;;;2.53;;
62880;SDS011;48969;49.934;8.596;2023-03-02T04:10:06;0.90;;;0.90;;
62880;SDS011;48969;49.934;8.596;2023-03-02T04:12:33;13.57;;;3.70;;
62880;SDS011;48969;49.934;8.596;2023-03-02T04:14:59;2.37;;;2.17;;
62880;SDS011;48969;49.934;8.596;2023-03-02T04:17:24;8.63;;;4.00;;
62880;SDS011;48969;49.934;8.596;2023-03-02T04:19:49;1.00;;;0.93;;
62880;SDS011;48969;49.934;8.596;2023-03-02T04:22:14;1.43;;;1.43;;
62880;SDS011;48969;49.934;8.596;2023-03-02T04:24:41;3.30;;;2.27;;
62880;SDS011;48969;49.934;8.596;2023-03-02T04:27:06;2.93;;;1.77;;
62880;SDS011;48969;49.934;8.596;2023-03-02T04:29:31;3.23;;;2.93;;
62880;SDS011;48969;49.934;8.596;2023-03-02T04:31:56;4.13;;;2.73;;
62880;SDS011;48969;49.934;8.596;2023-03-02T04:34:22;4.40;;;1.63;;
62880;SDS011;48969;49.934;8.596;2023-03-02T04:36:49;1.80;;;0.87;;
62880;SDS011;48969;49.934;8.596;2023-03-02T04:39:14;5.77;;;3.70;;
62880;SDS011;48969;49.934;8.596;2023-03-02T04:41:40;6.67;;;2.70;;
62880;SDS011;48969;49.934;8.596;2023-03-02T04:44:05;3.34;;;3.08;;
62880;SDS011;48969;49.934;8.596;2023-03-02T04:46:30;3.16;;;2.54;;
62880;SDS011;48969;49.934;8.596;2023-03-02T04:48:56;2.47;;;2.27;;
62880;SDS011;48969;49.934;8.596;2023-03-02T04:51:29;2.57;;;2.37;;
62880;SDS011;48969;49.934;8.596;2023-03-02T04:53:56;2.37;;;2.27;;
62880;SDS011;48969;49.934;8.596;2023-03-02T04:56:21;1.67;;;1.57;;
62880;SDS011;48969;49.934;8.596;2023-03-02T04:58:46;6.90;;;3.93;;
62880;SDS011;48969;49.934;8.596;2023-03-02T05:01:12;2.63;;;2.43;;
62880;SDS011;48969;49.934;8.596;2023-03-02T05:03:38;6.30;;;1.77;;
62880;SDS011;48969;49.934;8.596;2023-03-02T05:06:03;1.80;;;1.70;;
62880;SDS011;48969;49.934;8.596;2023-03-02T05:08:29;3.90;;;2.83;;
62880;SDS011;48969;49.934;8.596;2023-03-02T05:10:54;7.03;;;3.07;;
62880;SDS011;48969;49.934;8.596;2023-03-02T05:13:19;1.50;;;1.40;;
62880;SDS011;48969;49.934;8.596;2023-03-02T05:15:44;9.50;;;1.80;;
62880;SDS011;48969;49.934;8.596;2023-03-02T05:18:10;1.17;;;1.07;;
62880;SDS011;48969;49.934;8.596;2023-03-02T05:20:35;7.53;;;1.40;;
62880;SDS011;48969;49.934;8.596;2023-03-02T05:23:01;1.60;;;1.33;;
62880;SDS011;48969;49.934;8.596;2023-03-02T05:25:28;1.87;;;1.67;;
62880;SDS011;48969;49.934;8.596;2023-03-02T05:27:53;5.50;;;2.77;;
62880;SDS011;48969;49.934;8.596;2023-03-02T05:30:19;3.73;;;2.90;;
62880;SDS011;48969;49.934;8.596;2023-03-02T05:32:44;4.10;;;2.97;;
62880;SDS011;48969;49.934;8.596;2023-03-02T05:35:10;2.70;;;2.47;;
62880;SDS011;48969;49.934;8.596;2023-03-02T05:37:35;5.50;;;3.33;;
62880;SDS011;48969;49.934;8.596;2023-03-02T05:40:03;14.70;;;5.23;;
62880;SDS011;48969;49.934;8.596;2023-03-02T05:42:30;6.40;;;3.87;;
62880;SDS011;48969;49.934;8.596;2023-03-02T05:44:56;3.70;;;3.40;;
62880;SDS011;48969;49.934;8.596;2023-03-02T05:47:21;2.30;;;2.20;;
62880;SDS011;48969;49.934;8.596;2023-03-02T05:49:46;2.73;;;2.43;;
62880;SDS011;48969;49.934;8.596;2023-03-02T05:52:11;0.70;;;0.70;;
62880;SDS011;48969;49.934;8.596;2023-03-02T05:54:36;8.50;;;3.90;;
62880;SDS011;48969;49.934;8.596;2023-03-02T05:57:01;1.07;;;1.07;;
62880;SDS011;48969;49.934;8.596;2023-03-02T05:59:27;3.60;;;2.83;;
62880;SDS011;48969;49.934;8.596;2023-03-02T06:01:52;3.67;;;3.30;;
62880;SDS011;48969;49.934;8.596;2023-03-02T06:04:23;2.70;;;2.50;;
62880;SDS011;48969;49.934;8.596;2023-03-02T06:06:48;4.73;;;2.33;;
62880;SDS011;48969;49.934;8.596;2023-03-02T06:09:13;4.70;;;3.45;;
62880;SDS011;48969;49.934;8.596;2023-03-02T06:11:38;0.80;;;0.80;;
62880;SDS011;48969;49.934;8.596;2023-03-02T06:14:03;1.83;;;1.60;;
62880;SDS011;48969;49.934;8.596;2023-03-02T06:16:28;2.42;;;2.25;;
62880;SDS011;48969;49.934;8.596;2023-03-02T06:18:55;1.33;;;1.17;;
62880;SDS011;48969;49.934;8.596;2023-03-02T06:21:20;4.80;;;2.77;;
62880;SDS011;48969;49.934;8.596;2023-03-02T06:23:45;4.66;;;2.52;;
62880;SDS011;48969;49.934;8.596;2023-03-02T06:26:10;7.72;;;4.22;;
62880;SDS011;48969;49.934;8.596;2023-03-02T06:28:35;4.20;;;3.30;;
62880;SDS011;48969;49.934;8.596;2023-03-02T06:31:01;2.83;;;2.63;;
62880;SDS011;48969;49.934;8.596;2023-03-02T06:33:26;3.37;;;2.20;;
62880;SDS011;48969;49.934;8.596;2023-03-02T06:35:51;4.37;;;2.37;;
62880;SDS011;48969;49.934;8.596;2023-03-02T06:38:16;6.03;;;4.20;;
62880;SDS011;48969;49.934;8.596;2023-03-02T06:40:42;3.30;;;1.97;;
62880;SDS011;48969;49.934;8.596;2023-03-02T06:43:07;5.57;;;4.33;;
62880;SDS011;48969;49.934;8.596;2023-03-02T06:45:32;2.28;;;2.12;;
62880;SDS011;48969;49.934;8.596;2023-03-02T06:47:58;3.23;;;2.70;;
62880;SDS011;48969;49.934;8.596;2023-03-02T06:50:23;4.17;;;3.47;;
62880;SDS011;48969;49.934;8.596;2023-03-02T06:52:48;4.93;;;3.50;;
62880;SDS011;48969;49.934;8.596;2023-03-02T06:55:14;2.63;;;2.43;;
62880;SDS011;48969;49.934;8.596;2023-03-02T06:57:39;3.67;;;3.13;;
62880;SDS011;48969;49.934;8.596;2023-03-02T07:00:05;4.76;;;3.26;;
62880;SDS011;48969;49.934;8.596;2023-03-02T07:02:34;6.60;;;3.47;;
62880;SDS011;48969;49.934;8.596;2023-03-02T07:04:59;4.10;;;2.87;;
62880;SDS011;48969;49.934;8.596;2023-03-02T07:07:24;3.40;;;2.10;;
62880;SDS011;48969;49.934;8.596;2023-03-02T07:09:49;7.93;;;3.43;;
62880;SDS011;48969;49.934;8.596;2023-03-02T07:12:14;2.54;;;2.36;;
62880;SDS011;48969;49.934;8.596;2023-03-02T07:14:39;1.80;;;1.60;;
62880;SDS011;48969;49.934;8.596;2023-03-02T07:17:05;6.54;;;4.06;;
62880;SDS011;48969;49.934;8.596;2023-03-02T07:19:30;3.73;;;3.23;;
62880;SDS011;48969;49.934;8.596;2023-03-02T07:21:55;10.23;;;5.53;;
62880;SDS011;48969;49.934;8.596;2023-03-02T07:24:20;1.44;;;1.32;;
62880;SDS011;48969;49.934;8.596;2023-03-02T07:26:46;6.18;;;2.88;;
62880;SDS011;48969;49.934;8.596;2023-03-02T07:29:11;1.60;;;1.43;;
62880;SDS011;48969;49.934;8.596;2023-03-02T07:31:36;2.50;;;2.30;;
62880;SDS011;48969;49.934;8.596;2023-03-02T07:34:01;3.10;;;2.10;;
62880;SDS011;48969;49.934;8.596;2023-03-02T07:36:27;2.40;;;2.20;;
62880;SDS011;48969;49.934;8.596;2023-03-02T07:38:52;9.96;;;4.44;;
62880;SDS011;48969;49.934;8.596;2023-03-02T07:41:18;10.45;;;4.63;;
62880;SDS011;48969;49.934;8.596;2023-03-02T07:43:43;10.05;;;5.03;;
62880;SDS011;48969;49.934;8.596;2023-03-02T07:46:09;1.52;;;1.33;;
62880;SDS011;48969;49.934;8.596;2023-03-02T07:48:34;6.50;;;3.35;;
62880;SDS011;48969;49.934;8.596;2023-03-02T07:51:00;7.87;;;4.07;;
62880;SDS011;48969;49.934;8.596;2023-03-02T07:53:26;3.80;;;2.75;;
62880;SDS011;48969;49.934;8.596;2023-03-02T07:55:51;6.13;;;4.28;;
62880;SDS011;48969;49.934;8.596;2023-03-02T07:58:16;2.88;;;2.65;;
62880;SDS011;48969;49.934;8.596;2023-03-02T08:00:41;9.98;;;6.82;;
62880;SDS011;48969;49.934;8.596;2023-03-02T08:03:07;6.68;;;4.47;;
62880;SDS011;48969;49.934;8.596;2023-03-02T08:05:32;9.02;;;5.78;;
62880;SDS011;48969;49.934;8.596;2023-03-02T08:07:57;6.20;;;4.18;;
62880;SDS011;48969;49.934;8.596;2023-03-02T08:10:22;5.05;;;2.55;;
62880;SDS011;48969;49.934;8.596;2023-03-02T08:12:47;5.88;;;2.80;;
62880;SDS011;48969;49.934;8.596;2023-03-02T08:15:12;2.32;;;2.02;;
62880;SDS011;48969;49.934;8.596;2023-03-02T08:17:38;3.65;;;2.33;;
62880;SDS011;48969;49.934;8.596;2023-03-02T08:20:03;5.60;;;2.88;;
62880;SDS011;48969;49.934;8.596;2023-03-02T08:22:28;10.68;;;6.40;;
62880;SDS011;48969;49.934;8.596;2023-03-02T08:24:54;2.83;;;2.60;;
62880;SDS011;48969;49.934;8.596;2023-03-02T08:27:19;4.25;;;3.67;;
62880;SDS011;48969;49.934;8.596;2023-03-02T08:29:44;7.90;;;5.50;;
62880;SDS011;48969;49.934;8.596;2023-03-02T08:32:09;3.66;;;1.66;;
62880;SDS011;48969;49.934;8.596;2023-03-02T08:34:35;5.90;;;3.13;;
62880;SDS011;48969;49.934;8.596;2023-03-02T08:37:00;4.18;;;3.28;;
62880;SDS011;48969;49.934;8.596;2023-03-02T08:39:25;5.95;;;3.58;;
62880;SDS011;48969;49.934;8.596;2023-03-02T08:41:54;9.52;;;5.28;;
62880;SDS011;48969;49.934;8.596;2023-03-02T08:44:19;6.40;;;4.88;;
62880;SDS011;48969;49.934;8.596;2023-03-02T08:46:48;6.82;;;4.13;;
62880;SDS011;48969;49.934;8.596;2023-03-02T08:49:13;11.32;;;6.03;;
62880;SDS011;48969;49.934;8.596;2023-03-02T08:51:38;7.60;;;3.45;;
62880;SDS011;48969;49.934;8.596;2023-03-02T08:54:04;5.95;;;3.83;;
62880;SDS011;48969;49.934;8.596;2023-03-02T08:56:30;5.80;;;3.85;;
62880;SDS011;48969;49.934;8.596;2023-03-02T08:58:57;4.53;;;2.85;;
62880;SDS011;48969;49.934;8.596;2023-03-02T09:01:23;6.70;;;4.47;;
62880;SDS011;48969;49.934;8.596;2023-03-02T09:03:49;20.23;;;16.92;;
62880;SDS011;48969;49.934;8.596;2023-03-02T09:06:14;5.82;;;2.30;;
62880;SDS011;48969;49.934;8.596;2023-03-02T09:08:40;2.63;;;2.42;;
62880;SDS011;48969;49.934;8.596;2023-03-02T09:11:05;2.17;;;1.80;;
62880;SDS011;48969;49.934;8.596;2023-03-02T09:13:31;20.92;;;16.63;;
62880;SDS011;48969;49.934;8.596;2023-03-02T09:15:56;3.13;;;2.83;;
62880;SDS011;48969;49.934;8.596;2023-03-02T09:18:21;8.15;;;4.68;;
62880;SDS011;48969;49.934;8.596;2023-03-02T09:20:50;2.30;;;1.98;;
62880;SDS011;48969;49.934;8.596;2023-03-02T09:23:15;20.70;;;16.77;;
62880;SDS011;48969;49.934;8.596;2023-03-02T09:25:41;5.72;;;2.40;;
62880;SDS011;48969;49.934;8.596;2023-03-02T09:28:06;21.66;;;17.02;;
62880;SDS011;48969;49.934;8.596;2023-03-02T09:30:31;19.50;;;16.83;;
62880;SDS011;48969;49.934;8.596;2023-03-02T09:32:56;4.13;;;3.53;;
62880;SDS011;48969;49.934;8.596;2023-03-02T09:35:22;15.52;;;5.53;;
62880;SDS011;48969;49.934;8.596;2023-03-02T09:37:47;4.28;;;2.54;;
62880;SDS011;48969;49.934;8.596;2023-03-02T09:40:17;6.97;;;4.28;;
62880;SDS011;48969;49.934;8.596;2023-03-02T09:45:44;7.72;;;4.10;;
62880;SDS011;48969;49.934;8.596;2023-03-02T09:53:34;21.00;;;17.48;;
62880;SDS011;48969;49.934;8.596;2023-03-02T09:56:01;4.93;;;3.67;;
62880;SDS011;48969;49.934;8.596;2023-03-02T09:58:28;3.15;;;2.53;;
62880;SDS011;48969;49.934;8.596;2023-03-02T10:00:54;9.27;;;3.63;;
62880;SDS011;48969;49.934;8.596;2023-03-02T10:03:20;22.75;;;16.52;;
62880;SDS011;48969;49.934;8.596;2023-03-02T10:05:53;3.60;;;2.15;;
62880;SDS011;48969;49.934;8.596;2023-03-02T10:08:22;20.45;;;17.10;;
62880;SDS011;48969;49.934;8.596;2023-03-02T10:13:27;19.95;;;16.63;;
62880;SDS011;48969;49.934;8.596;2023-03-02T10:23:48;22.33;;;16.73;;
62880;SDS011;48969;49.934;8.596;2023-03-02T10:28:49;18.95;;;16.00;;
62880;SDS011;48969;49.934;8.596;2023-03-02T10:31:25;20.63;;;16.20;;
62880;SDS011;48969;49.934;8.596;2023-03-02T10:33:51;19.67;;;15.80;;
62880;SDS011;48969;49.934;8.596;2023-03-02T10:36:29;7.28;;;4.48;;
62880;SDS011;48969;49.934;8.596;2023-03-02T10:38:55;6.43;;;3.20;;
62880;SDS011;48969;49.934;8.596;2023-03-02T10:41:22;19.50;;;15.68;;
62880;SDS011;48969;49.934;8.596;2023-03-02T10:44:03;18.88;;;15.70;;
62880;SDS011;48969;49.934;8.596;2023-03-02T10:46:40;20.30;;;16.45;;
62880;SDS011;48969;49.934;8.596;2023-03-02T10:49:17;3.28;;;2.58;;
62880;SDS011;48969;49.934;8.596;2023-03-02T10:51:53;19.27;;;15.25;;
62880;SDS011;48969;49.934;8.596;2023-03-02T10:54:18;19.13;;;15.98;;
62880;SDS011;48969;49.934;8.596;2023-03-02T10:56:46;19.70;;;15.88;;
62880;SDS011;48969;49.934;8.596;2023-03-02T11:02:24;19.27;;;15.75;;
62880;SDS011;48969;49.934;8.596;2023-03-02T11:04:42;17.88;;;15.55;;
62880;SDS011;48969;49.934;8.596;2023-03-02T11:07:08;19.17;;;15.52;;
62880;SDS011;48969;49.934;8.596;2023-03-02T11:09:36;18.80;;;15.20;;
62880;SDS011;48969;49.934;8.596;2023-03-02T11:12:01;22.45;;;16.00;;
62880;SDS011;48969;49.934;8.596;2023-03-02T11:14:26;20.33;;;15.65;;
62880;SDS011;48969;49.934;8.596;2023-03-02T11:16:51;18.60;;;15.70;;
62880;SDS011;48969;49.934;8.596;2023-03-02T11:24:25;19.65;;;15.07;;
62880;SDS011;48969;49.934;8.596;2023-03-02T11:26:58;19.30;;;15.57;;
62880;SDS011;48969;49.934;8.596;2023-03-02T11:29:37;18.25;;;14.75;;
62880;SDS011;48969;49.934;8.596;2023-03-02T11:39:35;17.63;;;14.77;;
62880;SDS011;48969;49.934;8.596;2023-03-02T11:42:04;18.67;;;14.35;;
62880;SDS011;48969;49.934;8.596;2023-03-02T11:44:36;18.70;;;14.40;;
62880;SDS011;48969;49.934;8.596;2023-03-02T11:47:01;18.50;;;14.15;;
62880;SDS011;48969;49.934;8.596;2023-03-02T11:49:37;17.52;;;14.07;;
62880;SDS011;48969;49.934;8.596;2023-03-02T11:52:03;12.27;;;5.63;;
62880;SDS011;48969;49.934;8.596;2023-03-02T11:54:51;19.90;;;14.68;;
62880;SDS011;48969;49.934;8.596;2023-03-02T11:57:22;18.85;;;14.55;;
62880;SDS011;48969;49.934;8.596;2023-03-02T11:59:49;18.65;;;13.85;;
62880;SDS011;48969;49.934;8.596;2023-03-02T12:02:15;19.58;;;14.48;;
62880;SDS011;48969;49.934;8.596;2023-03-02T12:04:40;17.98;;;13.80;;
62880;SDS011;48969;49.934;8.596;2023-03-02T12:07:22;16.65;;;14.05;;
62880;SDS011;48969;49.934;8.596;2023-03-02T12:10:07;1.08;;;1.05;;
62880;SDS011;48969;49.934;8.596;2023-03-02T12:12:40;19.02;;;14.07;;
62880;SDS011;48969;49.934;8.596;2023-03-02T12:15:25;15.82;;;13.73;;
62880;SDS011;48969;49.934;8.596;2023-03-02T12:17:50;17.13;;;14.02;;
62880;SDS011;48969;49.934;8.596;2023-03-02T12:20:26;15.85;;;13.75;;
62880;SDS011;48969;49.934;8.596;2023-03-02T12:22:52;16.77;;;14.38;;
62880;SDS011;48969;49.934;8.596;2023-03-02T12:27:43;17.52;;;14.02;;
62880;SDS011;48969;49.934;8.596;2023-03-02T12:32:33;17.85;;;13.07;;
62880;SDS011;48969;49.934;8.596;2023-03-02T12:35:12;17.40;;;12.63;;
62880;SDS011;48969;49.934;8.596;2023-03-02T12:45:37;17.92;;;13.30;;
62880;SDS011;48969;49.934;8.596;2023-03-02T12:48:14;17.20;;;12.60;;
62880;SDS011;48969;49.934;8.596;2023-03-02T12:50:44;18.05;;;12.52;;
62880;SDS011;48969;49.934;8.596;2023-03-02T12:53:15;17.73;;;12.88;;
62880;SDS011;48969;49.934;8.596;2023-03-02T12:55:40;15.77;;;12.18;;
62880;SDS011;48969;49.934;8.596;2023-03-02T12:58:11;17.23;;;11.95;;
62880;SDS011;48969;49.934;8.596;2023-03-02T13:03:04;20.70;;;12.88;;
62880;SDS011;48969;49.934;8.596;2023-03-02T13:05:34;15.65;;;11.82;;
62880;SDS011;48969;49.934;8.596;2023-03-02T13:08:00;17.35;;;12.40;;
62880;SDS011;48969;49.934;8.596;2023-03-02T13:10:32;16.92;;;12.90;;
62880;SDS011;48969;49.934;8.596;2023-03-02T13:15:26;17.15;;;12.90;;
62880;SDS011;48969;49.934;8.596;2023-03-02T13:17:56;15.73;;;12.50;;
62880;SDS011;48969;49.934;8.596;2023-03-02T13:20:23;17.52;;;13.23;;
62880;SDS011;48969;49.934;8.596;2023-03-02T13:22:49;18.38;;;12.80;;
62880;SDS011;48969;49.934;8.596;2023-03-02T13:25:20;17.77;;;12.57;;
62880;SDS011;48969;49.934;8.596;2023-03-02T13:27:52;18.90;;;13.02;;
62880;SDS011;48969;49.934;8.596;2023-03-02T13:30:36;18.70;;;13.27;;
62880;SDS011;48969;49.934;8.596;2023-03-02T13:33:15;17.05;;;13.18;;
62880;SDS011;48969;49.934;8.596;2023-03-02T13:35:44;14.85;;;12.25;;
62880;SDS011;48969;49.934;8.596;2023-03-02T13:38:14;16.17;;;12.15;;
62880;SDS011;48969;49.934;8.596;2023-03-02T13:43:22;18.40;;;12.35;;
62880;SDS011;48969;49.934;8.596;2023-03-02T13:46:00;16.92;;;12.68;;
62880;SDS011;48969;49.934;8.596;2023-03-02T13:48:25;18.75;;;13.00;;
62880;SDS011;48969;49.934;8.596;2023-03-02T13:53:20;17.13;;;12.85;;
62880;SDS011;48969;49.934;8.596;2023-03-02T13:55:45;16.42;;;13.43;;
62880;SDS011;48969;49.934;8.596;2023-03-02T13:58:14;16.02;;;12.57;;
62880;SDS011;48969;49.934;8.596;2023-03-02T14:00:39;18.63;;;12.98;;
62880;SDS011;48969;49.934;8.596;2023-03-02T14:03:10;15.35;;;12.13;;
62880;SDS011;48969;49.934;8.596;2023-03-02T14:05:41;17.23;;;11.77;;
62880;SDS011;48969;49.934;8.596;2023-03-02T14:08:06;15.13;;;11.93;;
62880;SDS011;48969;49.934;8.596;2023-03-02T14:10:31;14.73;;;11.82;;
62880;SDS011;48969;49.934;8.596;2023-03-02T14:15:21;19.65;;;14.25;;
62880;SDS011;48969;49.934;8.596;2023-03-02T14:17:47;17.27;;;12.50;;
62880;SDS011;48969;49.934;8.596;2023-03-02T14:20:14;16.95;;;12.18;;
62880;SDS011;48969;49.934;8.596;2023-03-02T14:22:41;14.43;;;11.35;;
62880;SDS011;48969;49.934;8.596;2023-03-02T14:25:08;18.88;;;12.02;;
62880;SDS011;48969;49.934;8.596;2023-03-02T14:27:34;17.40;;;11.95;;
62880;SDS011;48969;49.934;8.596;2023-03-02T14:29:59;15.18;;;12.05;;
62880;SDS011;48969;49.934;8.596;2023-03-02T14:32:24;14.75;;;12.18;;
62880;SDS011;48969;49.934;8.596;2023-03-02T14:34:50;17.17;;;11.93;;
62880;SDS011;48969;49.934;8.596;2023-03-02T14:37:16;18.83;;;11.85;;
62880;SDS011;48969;49.934;8.596;2023-03-02T14:39:43;15.88;;;12.15;;
62880;SDS011;48969;49.934;8.596;2023-03-02T14:42:17;15.18;;;12.52;;
62880;SDS011;48969;49.934;8.596;2023-03-02T14:47:07;15.57;;;11.73;;
62880;SDS011;48969;49.934;8.596;2023-03-02T14:49:34;18.48;;;11.25;;
62880;SDS011;48969;49.934;8.596;2023-03-02T14:52:00;15.77;;;11.95;;
62880;SDS011;48969;49.934;8.596;2023-03-02T14:54:26;15.73;;;11.73;;
62880;SDS011;48969;49.934;8.596;2023-03-02T14:56:54;13.57;;;11.15;;
62880;SDS011;48969;49.934;8.596;2023-03-02T14:59:19;15.15;;;11.25;;
62880;SDS011;48969;49.934;8.596;2023-03-02T15:01:44;14.90;;;11.35;;
62880;SDS011;48969;49.934;8.596;2023-03-02T15:04:10;16.83;;;11.73;;
62880;SDS011;48969;49.934;8.596;2023-03-02T15:06:36;17.02;;;11.57;;
62880;SDS011;48969;49.934;8.596;2023-03-02T15:09:02;15.52;;;11.40;;
62880;SDS011;48969;49.934;8.596;2023-03-02T15:11:28;14.20;;;11.35;;
62880;SDS011;48969;49.934;8.596;2023-03-02T15:13:53;17.15;;;11.77;;
62880;SDS011;48969;49.934;8.596;2023-03-02T15:16:19;18.92;;;12.25;;
62880;SDS011;48969;49.934;8.596;2023-03-02T15:18:44;18.65;;;11.38;;
62880;SDS011;48969;49.934;8.596;2023-03-02T15:21:19;18.23;;;10.98;;
62880;SDS011;48969;49.934;8.596;2023-03-02T15:26:10;17.75;;;11.35;;
62880;SDS011;48969;49.934;8.596;2023-03-02T15:28:36;16.67;;;11.93;;
62880;SDS011;48969;49.934;8.596;2023-03-02T15:31:08;23.23;;;12.25;;
62880;SDS011;48969;49.934;8.596;2023-03-02T15:33:34;17.08;;;10.98;;
62880;SDS011;48969;49.934;8.596;2023-03-02T15:35:59;15.48;;;11.02;;
62880;SDS011;48969;49.934;8.596;2023-03-02T15:38:24;18.73;;;11.77;;
62880;SDS011;48969;49.934;8.596;2023-03-02T15:40:50;15.40;;;11.18;;
62880;SDS011;48969;49.934;8.596;2023-03-02T15:43:15;19.02;;;11.25;;
62880;SDS011;48969;49.934;8.596;2023-03-02T15:45:44;15.85;;;12.10;;
62880;SDS011;48969;49.934;8.596;2023-03-02T15:48:10;15.60;;;10.73;;
62880;SDS011;48969;49.934;8.596;2023-03-02T15:50:35;15.20;;;11.77;;